EDT,Max TemperatureF,Mean TemperatureF,Min TemperatureF,Max Dew PointF,MeanDew PointF,Min DewpointF,Max Humidity, Mean Humidity, Min Humidity, Max Sea Level PressureIn, Mean Sea Level PressureIn, Min Sea Level PressureIn, Max VisibilityMiles, Mean VisibilityMiles, Min VisibilityMiles, Max Wind SpeedMPH, Mean Wind SpeedMPH, Max Gust SpeedMPH,PrecipitationIn, CloudCover, Events, WindDirDegrees
2014-4-1,82,64,45,54,45,34,100,61,21,30.21,30.15,30.10,10,9,4,14,4,17,0.00,2,,160
2014-4-2,84,66,48,58,52,47,100,67,34,30.21,30.16,30.12,10,10,10,15,5,18,0.00,2,,162
2014-4-3,87,72,56,63,58,53,100,66,31,30.16,30.09,30.01,10,10,10,16,7,20,0.00,3,,194
2014-4-4,85,71,57,63,60,56,100,70,40,30.06,30.02,29.96,10,10,7,18,7,23,0.00,4,,225
2014-4-5,83,71,59,70,64,59,100,77,54,30.04,30.00,29.95,10,8,1,24,5,36,0.39,7,Rain-Thunderstorm,244
2014-4-6,78,71,64,68,65,62,100,84,67,30.03,30.00,29.96,10,8,2,20,7,24,0.01,8,Rain,69
2014-4-7,82,72,61,70,65,61,100,81,62,29.96,29.87,29.78,10,7,1,20,6,25,0.59,7,Rain-Thunderstorm,123
2014-4-8,76,67,58,68,63,54,100,79,57,29.81,29.74,29.67,10,7,1,20,9,23,1.62,7,Rain-Thunderstorm,253
2014-4-9,74,63,51,54,48,42,96,65,33,30.17,29.99,29.82,10,10,10,20,7,26,0.00,1,,284
2014-4-10,77,63,48,54,48,39,100,64,27,30.31,30.24,30.17,10,10,10,17,4,22,0.00,0,,132
2014-4-11,80,67,54,59,55,50,100,69,37,30.30,30.23,30.17,10,10,9,16,5,21,0.00,4,,146
2014-4-12,81,68,55,63,56,48,100,68,35,30.24,30.19,30.15,10,10,7,14,5,20,0.00,1,,118
2014-4-13,81,68,55,64,60,55,100,75,50,30.19,30.13,30.07,10,10,9,18,6,24,0.00,3,,104
2014-4-14,85,74,63,69,66,63,100,79,58,30.06,29.95,29.86,10,10,10,18,9,24,0.00,6,,153
2014-4-15,77,63,49,73,64,42,100,87,74,30.02,29.83,29.72,10,7,1,26,10,35,1.61,8,Rain,247
2014-4-16,62,53,43,54,45,38,83,73,62,30.25,30.18,30.02,10,10,10,25,14,32,0.00,6,,19
2014-4-17,68,64,59,63,59,54,100,89,78,30.33,30.26,30.21,10,8,2,26,17,34,0.03,8,Rain,48
2014-4-18,74,69,63,72,66,62,100,97,93,30.23,30.03,29.91,10,8,1,21,9,26,0.68,8,Rain,64
2014-4-19,75,67,59,67,64,59,100,82,64,30.02,29.90,29.85,10,7,0,20,7,24,0.68,7,Fog-Rain-Thunderstorm,20
2014-4-20,62,58,54,58,55,53,100,92,84,30.13,30.07,30.00,10,9,4,14,8,18,T,8,,342
2014-4-21,75,65,55,58,57,54,100,79,57,30.11,30.05,29.99,10,10,10,12,5,15,0.00,5,,8
2014-4-22,83,68,53,60,56,53,100,69,37,29.98,29.90,29.81,10,10,10,15,6,19,0.00,2,,248
2014-4-23,85,73,60,65,62,59,100,72,43,29.94,29.89,29.84,10,10,8,17,7,23,0.00,1,,273
2014-4-24,83,72,61,68,64,62,100,76,51,30.02,29.96,29.91,10,9,4,15,5,20,0.00,4,,124
2014-4-25,84,73,62,66,64,62,100,76,51,30.00,29.95,29.89,10,9,4,20,9,27,0.00,4,,252
2014-4-26,84,74,63,68,63,55,100,70,40,30.04,29.99,29.93,10,8,0,15,7,18,0.00,2,Fog,331
2014-4-27,86,73,59,68,64,59,100,71,42,30.04,29.99,29.93,10,10,7,17,6,21,0.00,4,,148
2014-4-28,91,80,69,71,68,62,100,71,41,29.97,29.92,29.87,10,10,7,17,8,22,0.00,4,,180
2014-4-29,87,79,70,73,69,67,93,75,57,29.98,29.93,29.86,10,9,1,25,8,30,0.38,7,Rain-Thunderstorm,171
2014-4-30,84,76,67,73,69,63,100,76,51,30.08,30.02,29.95,10,10,9,21,8,25,T,7,,197